sensor_id;sensor_type;location;lat;lon;timestamp;temperature;humidity
9760;DHT22;4919;48.792;9.202;2023-04-25T00:01:53;8.40;1.00
9760;DHT22;4919;48.792;9.202;2023-04-25T00:04:38;8.40;1.00
9760;DHT22;4919;48.792;9.202;2023-04-25T00:07:22;8.30;1.00
9760;DHT22;4919;48.792;9.202;2023-04-25T00:10:08;8.30;1.00
9760;DHT22;4919;48.792;9.202;2023-04-25T00:12:53;8.30;1.00
9760;DHT22;4919;48.792;9.202;2023-04-25T00:15:38;8.30;1.00
9760;DHT22;4919;48.792;9.202;2023-04-25T00:18:23;8.30;1.00
9760;DHT22;4919;48.792;9.202;2023-04-25T00:21:08;8.20;1.00
9760;DHT22;4919;48.792;9.202;2023-04-25T00:23:53;8.30;1.00
9760;DHT22;4919;48.792;9.202;2023-04-25T00:26:37;8.20;1.00
9760;DHT22;4919;48.792;9.202;2023-04-25T00:29:22;8.30;1.00
9760;DHT22;4919;48.792;9.202;2023-04-25T00:32:07;8.20;1.00
9760;DHT22;4919;48.792;9.202;2023-04-25T00:34:52;8.20;1.00
9760;DHT22;4919;48.792;9.202;2023-04-25T00:37:37;8.20;1.00
9760;DHT22;4919;48.792;9.202;2023-04-25T00:40:22;8.20;1.00
9760;DHT22;4919;48.792;9.202;2023-04-25T00:43:07;8.20;1.00
9760;DHT22;4919;48.792;9.202;2023-04-25T00:45:52;8.20;1.00
9760;DHT22;4919;48.792;9.202;2023-04-25T00:48:37;8.30;1.00
9760;DHT22;4919;48.792;9.202;2023-04-25T00:51:22;8.30;1.00
9760;DHT22;4919;48.792;9.202;2023-04-25T00:54:07;8.30;1.00
9760;DHT22;4919;48.792;9.202;2023-04-25T00:56:52;8.30;1.00
9760;DHT22;4919;48.792;9.202;2023-04-25T00:59:37;8.40;1.00
9760;DHT22;4919;48.792;9.202;2023-04-25T01:02:22;8.40;1.00
9760;DHT22;4919;48.792;9.202;2023-04-25T01:05:07;8.40;1.00
9760;DHT22;4919;48.792;9.202;2023-04-25T01:07:53;8.40;1.00
9760;DHT22;4919;48.792;9.202;2023-04-25T01:10:38;8.40;1.00
9760;DHT22;4919;48.792;9.202;2023-04-25T01:13:22;8.40;1.00
9760;DHT22;4919;48.792;9.202;2023-04-25T01:16:07;8.50;1.00
9760;DHT22;4919;48.792;9.202;2023-04-25T01:18:52;8.40;1.00
9760;DHT22;4919;48.792;9.202;2023-04-25T01:21:37;8.40;1.00
9760;DHT22;4919;48.792;9.202;2023-04-25T01:24:22;8.40;1.00
9760;DHT22;4919;48.792;9.202;2023-04-25T01:27:07;8.40;1.00
9760;DHT22;4919;48.792;9.202;2023-04-25T01:29:54;8.40;1.00
9760;DHT22;4919;48.792;9.202;2023-04-25T01:32:40;8.40;1.00
9760;DHT22;4919;48.792;9.202;2023-04-25T01:35:25;8.40;1.00
9760;DHT22;4919;48.792;9.202;2023-04-25T01:38:11;8.30;1.00
9760;DHT22;4919;48.792;9.202;2023-04-25T01:40:56;8.30;1.00
9760;DHT22;4919;48.792;9.202;2023-04-25T01:43:41;8.30;1.00
9760;DHT22;4919;48.792;9.202;2023-04-25T01:46:26;8.30;1.00
9760;DHT22;4919;48.792;9.202;2023-04-25T01:49:11;8.30;1.00
9760;DHT22;4919;48.792;9.202;2023-04-25T01:51:56;8.30;1.00
9760;DHT22;4919;48.792;9.202;2023-04-25T01:54:41;8.20;1.00
9760;DHT22;4919;48.792;9.202;2023-04-25T01:57:26;8.20;1.00
9760;DHT22;4919;48.792;9.202;2023-04-25T02:00:11;8.20;1.00
9760;DHT22;4919;48.792;9.202;2023-04-25T02:02:59;8.10;1.00
9760;DHT22;4919;48.792;9.202;2023-04-25T02:05:44;8.20;1.00
9760;DHT22;4919;48.792;9.202;2023-04-25T02:08:29;8.20;1.00
9760;DHT22;4919;48.792;9.202;2023-04-25T02:11:14;8.10;1.00
9760;DHT22;4919;48.792;9.202;2023-04-25T02:13:59;8.10;1.00
9760;DHT22;4919;48.792;9.202;2023-04-25T02:16:44;8.10;1.00
9760;DHT22;4919;48.792;9.202;2023-04-25T02:19:29;8.00;1.00
9760;DHT22;4919;48.792;9.202;2023-04-25T02:22:14;8.00;1.00
9760;DHT22;4919;48.792;9.202;2023-04-25T02:24:59;8.00;1.00
9760;DHT22;4919;48.792;9.202;2023-04-25T02:27:44;7.90;1.00
9760;DHT22;4919;48.792;9.202;2023-04-25T02:30:28;8.00;1.00
9760;DHT22;4919;48.792;9.202;2023-04-25T02:33:13;7.90;1.00
9760;DHT22;4919;48.792;9.202;2023-04-25T02:35:58;7.90;1.00
9760;DHT22;4919;48.792;9.202;2023-04-25T02:38:43;7.90;1.00
9760;DHT22;4919;48.792;9.202;2023-04-25T02:41:28;7.90;1.00
9760;DHT22;4919;48.792;9.202;2023-04-25T02:44:13;7.90;1.00
9760;DHT22;4919;48.792;9.202;2023-04-25T02:46:58;7.90;1.00
9760;DHT22;4919;48.792;9.202;2023-04-25T02:49:42;7.90;1.00
9760;DHT22;4919;48.792;9.202;2023-04-25T02:52:27;7.90;1.00
9760;DHT22;4919;48.792;9.202;2023-04-25T02:55:13;7.90;1.00
9760;DHT22;4919;48.792;9.202;2023-04-25T02:57:58;7.90;1.00
9760;DHT22;4919;48.792;9.202;2023-04-25T03:00:43;7.90;1.00
9760;DHT22;4919;48.792;9.202;2023-04-25T03:03:28;7.90;1.00
9760;DHT22;4919;48.792;9.202;2023-04-25T03:06:13;7.90;1.00
9760;DHT22;4919;48.792;9.202;2023-04-25T03:08:58;7.90;1.00
9760;DHT22;4919;48.792;9.202;2023-04-25T03:11:44;7.90;1.00
9760;DHT22;4919;48.792;9.202;2023-04-25T03:14:29;7.90;1.00
9760;DHT22;4919;48.792;9.202;2023-04-25T03:17:14;7.90;1.00
9760;DHT22;4919;48.792;9.202;2023-04-25T03:19:59;7.90;1.00
9760;DHT22;4919;48.792;9.202;2023-04-25T03:22:44;8.00;1.00
9760;DHT22;4919;48.792;9.202;2023-04-25T03:25:28;8.00;1.00
9760;DHT22;4919;48.792;9.202;2023-04-25T03:28:13;7.90;1.00
9760;DHT22;4919;48.792;9.202;2023-04-25T03:30:59;7.90;1.00
9760;DHT22;4919;48.792;9.202;2023-04-25T03:33:43;7.90;1.00
9760;DHT22;4919;48.792;9.202;2023-04-25T03:36:28;8.00;1.00
9760;DHT22;4919;48.792;9.202;2023-04-25T03:39:13;8.00;1.00
9760;DHT22;4919;48.792;9.202;2023-04-25T03:41:58;7.90;1.00
9760;DHT22;4919;48.792;9.202;2023-04-25T03:44:43;8.00;1.00
9760;DHT22;4919;48.792;9.202;2023-04-25T03:47:28;8.00;1.00
9760;DHT22;4919;48.792;9.202;2023-04-25T03:50:13;8.00;1.00
9760;DHT22;4919;48.792;9.202;2023-04-25T03:52:58;8.00;1.00
9760;DHT22;4919;48.792;9.202;2023-04-25T03:55:42;7.90;1.00
9760;DHT22;4919;48.792;9.202;2023-04-25T03:58:27;8.00;1.00
9760;DHT22;4919;48.792;9.202;2023-04-25T04:01:12;8.00;1.00
9760;DHT22;4919;48.792;9.202;2023-04-25T04:03:57;8.00;1.00
9760;DHT22;4919;48.792;9.202;2023-04-25T04:06:42;7.90;1.00
9760;DHT22;4919;48.792;9.202;2023-04-25T04:09:26;7.90;1.00
9760;DHT22;4919;48.792;9.202;2023-04-25T04:12:11;7.90;1.00
9760;DHT22;4919;48.792;9.202;2023-04-25T04:14:56;7.90;1.00
9760;DHT22;4919;48.792;9.202;2023-04-25T04:17:41;8.00;1.00
9760;DHT22;4919;48.792;9.202;2023-04-25T04:20:25;7.90;1.00
9760;DHT22;4919;48.792;9.202;2023-04-25T04:23:11;8.00;1.00
9760;DHT22;4919;48.792;9.202;2023-04-25T04:25:56;7.90;1.00
9760;DHT22;4919;48.792;9.202;2023-04-25T04:28:41;7.90;1.00
9760;DHT22;4919;48.792;9.202;2023-04-25T04:31:25;7.90;1.00
9760;DHT22;4919;48.792;9.202;2023-04-25T04:34:10;7.90;1.00
9760;DHT22;4919;48.792;9.202;2023-04-25T04:36:55;7.90;1.00
9760;DHT22;4919;48.792;9.202;2023-04-25T04:39:40;7.90;1.00
9760;DHT22;4919;48.792;9.202;2023-04-25T04:42:25;8.00;1.00
9760;DHT22;4919;48.792;9.202;2023-04-25T04:45:10;8.00;1.00
9760;DHT22;4919;48.792;9.202;2023-04-25T04:47:55;8.00;1.00
9760;DHT22;4919;48.792;9.202;2023-04-25T04:50:40;8.00;1.00
9760;DHT22;4919;48.792;9.202;2023-04-25T04:53:24;8.00;1.00
9760;DHT22;4919;48.792;9.202;2023-04-25T04:56:09;8.10;1.00
9760;DHT22;4919;48.792;9.202;2023-04-25T04:58:54;8.10;1.00
9760;DHT22;4919;48.792;9.202;2023-04-25T05:01:40;8.10;1.00
9760;DHT22;4919;48.792;9.202;2023-04-25T05:04:25;8.20;1.00
9760;DHT22;4919;48.792;9.202;2023-04-25T05:07:10;8.20;1.00
9760;DHT22;4919;48.792;9.202;2023-04-25T05:09:54;8.30;1.00
9760;DHT22;4919;48.792;9.202;2023-04-25T05:12:39;8.30;1.00
9760;DHT22;4919;48.792;9.202;2023-04-25T05:15:24;8.30;1.00
9760;DHT22;4919;48.792;9.202;2023-04-25T05:18:09;8.30;1.00
9760;DHT22;4919;48.792;9.202;2023-04-25T05:20:54;8.40;1.00
9760;DHT22;4919;48.792;9.202;2023-04-25T05:23:39;8.40;1.00
9760;DHT22;4919;48.792;9.202;2023-04-25T05:26:24;8.40;1.00
9760;DHT22;4919;48.792;9.202;2023-04-25T05:29:09;8.30;1.00
9760;DHT22;4919;48.792;9.202;2023-04-25T05:31:53;8.40;1.00
9760;DHT22;4919;48.792;9.202;2023-04-25T05:34:38;8.40;1.00
9760;DHT22;4919;48.792;9.202;2023-04-25T05:37:23;8.40;1.00
9760;DHT22;4919;48.792;9.202;2023-04-25T05:40:09;8.40;1.00
9760;DHT22;4919;48.792;9.202;2023-04-25T05:42:53;8.40;1.00
9760;DHT22;4919;48.792;9.202;2023-04-25T05:45:38;8.50;1.00
9760;DHT22;4919;48.792;9.202;2023-04-25T05:48:23;8.50;1.00
9760;DHT22;4919;48.792;9.202;2023-04-25T05:51:08;8.50;1.00
9760;DHT22;4919;48.792;9.202;2023-04-25T05:53:53;8.60;1.00
9760;DHT22;4919;48.792;9.202;2023-04-25T05:56:38;8.60;1.00
9760;DHT22;4919;48.792;9.202;2023-04-25T05:59:23;8.60;1.00
9760;DHT22;4919;48.792;9.202;2023-04-25T06:02:07;8.60;1.00
9760;DHT22;4919;48.792;9.202;2023-04-25T06:04:53;8.60;1.00
9760;DHT22;4919;48.792;9.202;2023-04-25T06:07:37;8.60;1.00
9760;DHT22;4919;48.792;9.202;2023-04-25T06:10:22;8.60;1.00
9760;DHT22;4919;48.792;9.202;2023-04-25T06:13:07;8.60;1.00
9760;DHT22;4919;48.792;9.202;2023-04-25T06:15:52;8.60;1.00
9760;DHT22;4919;48.792;9.202;2023-04-25T06:18:37;8.50;1.00
9760;DHT22;4919;48.792;9.202;2023-04-25T06:21:22;8.70;1.00
9760;DHT22;4919;48.792;9.202;2023-04-25T06:24:07;8.60;1.00
9760;DHT22;4919;48.792;9.202;2023-04-25T06:26:51;8.50;1.00
9760;DHT22;4919;48.792;9.202;2023-04-25T06:29:36;8.60;1.00
9760;DHT22;4919;48.792;9.202;2023-04-25T06:32:21;8.60;1.00
9760;DHT22;4919;48.792;9.202;2023-04-25T06:35:06;8.70;1.00
9760;DHT22;4919;48.792;9.202;2023-04-25T06:37:51;8.70;1.00
9760;DHT22;4919;48.792;9.202;2023-04-25T06:40:36;8.80;1.00
9760;DHT22;4919;48.792;9.202;2023-04-25T06:43:20;8.80;1.00
9760;DHT22;4919;48.792;9.202;2023-04-25T06:46:05;8.80;1.00
9760;DHT22;4919;48.792;9.202;2023-04-25T06:48:50;8.80;1.00
9760;DHT22;4919;48.792;9.202;2023-04-25T06:51:35;8.90;1.00
9760;DHT22;4919;48.792;9.202;2023-04-25T06:54:20;8.90;1.00
9760;DHT22;4919;48.792;9.202;2023-04-25T06:57:05;8.80;1.00
9760;DHT22;4919;48.792;9.202;2023-04-25T06:59:50;8.80;1.00
9760;DHT22;4919;48.792;9.202;2023-04-25T07:02:35;8.80;1.00
9760;DHT22;4919;48.792;9.202;2023-04-25T07:05:20;8.80;1.00
9760;DHT22;4919;48.792;9.202;2023-04-25T07:08:04;8.90;1.00
9760;DHT22;4919;48.792;9.202;2023-04-25T07:10:49;8.90;1.00
9760;DHT22;4919;48.792;9.202;2023-04-25T07:13:34;9.00;1.00
9760;DHT22;4919;48.792;9.202;2023-04-25T07:16:19;9.00;1.00
9760;DHT22;4919;48.792;9.202;2023-04-25T07:19:04;8.90;1.00
9760;DHT22;4919;48.792;9.202;2023-04-25T07:21:48;8.80;1.00
9760;DHT22;4919;48.792;9.202;2023-04-25T07:24:33;8.80;1.00
9760;DHT22;4919;48.792;9.202;2023-04-25T07:27:19;8.80;1.00
9760;DHT22;4919;48.792;9.202;2023-04-25T07:30:04;8.70;1.00
9760;DHT22;4919;48.792;9.202;2023-04-25T07:32:50;8.70;1.00
9760;DHT22;4919;48.792;9.202;2023-04-25T07:35:35;8.70;1.00
9760;DHT22;4919;48.792;9.202;2023-04-25T07:38:20;8.70;1.00
9760;DHT22;4919;48.792;9.202;2023-04-25T07:41:05;8.60;1.00
9760;DHT22;4919;48.792;9.202;2023-04-25T07:43:50;8.40;1.00
9760;DHT22;4919;48.792;9.202;2023-04-25T07:46:34;8.30;1.00
9760;DHT22;4919;48.792;9.202;2023-04-25T07:49:19;8.20;1.00
9760;DHT22;4919;48.792;9.202;2023-04-25T07:52:05;8.30;1.00
9760;DHT22;4919;48.792;9.202;2023-04-25T07:54:50;8.30;1.00
9760;DHT22;4919;48.792;9.202;2023-04-25T07:57:34;8.40;1.00
9760;DHT22;4919;48.792;9.202;2023-04-25T08:00:20;8.40;1.00
9760;DHT22;4919;48.792;9.202;2023-04-25T08:03:05;8.40;1.00
9760;DHT22;4919;48.792;9.202;2023-04-25T08:05:49;8.40;1.00
9760;DHT22;4919;48.792;9.202;2023-04-25T08:08:34;8.50;1.00
9760;DHT22;4919;48.792;9.202;2023-04-25T08:11:19;8.60;1.00
9760;DHT22;4919;48.792;9.202;2023-04-25T08:14:05;8.60;1.00
9760;DHT22;4919;48.792;9.202;2023-04-25T08:16:49;8.70;1.00
9760;DHT22;4919;48.792;9.202;2023-04-25T08:19:34;8.80;1.00
9760;DHT22;4919;48.792;9.202;2023-04-25T08:22:19;9.00;1.00
9760;DHT22;4919;48.792;9.202;2023-04-25T08:25:04;8.80;1.00
9760;DHT22;4919;48.792;9.202;2023-04-25T08:27:49;8.80;1.00
9760;DHT22;4919;48.792;9.202;2023-04-25T08:30:34;8.70;1.00
9760;DHT22;4919;48.792;9.202;2023-04-25T08:33:19;8.80;1.00
9760;DHT22;4919;48.792;9.202;2023-04-25T08:36:04;8.60;1.00
9760;DHT22;4919;48.792;9.202;2023-04-25T08:38:48;8.80;1.00
9760;DHT22;4919;48.792;9.202;2023-04-25T08:41:36;8.80;1.00
9760;DHT22;4919;48.792;9.202;2023-04-25T08:44:21;8.90;1.00
9760;DHT22;4919;48.792;9.202;2023-04-25T08:47:06;9.10;1.00
9760;DHT22;4919;48.792;9.202;2023-04-25T08:49:54;9.30;1.00
9760;DHT22;4919;48.792;9.202;2023-04-25T08:52:44;9.40;1.00
9760;DHT22;4919;48.792;9.202;2023-04-25T08:55:29;9.50;1.00
9760;DHT22;4919;48.792;9.202;2023-04-25T08:58:14;9.60;1.00
9760;DHT22;4919;48.792;9.202;2023-04-25T09:00:59;9.60;1.00
9760;DHT22;4919;48.792;9.202;2023-04-25T09:03:44;9.60;1.00
9760;DHT22;4919;48.792;9.202;2023-04-25T09:06:30;9.70;1.00
9760;DHT22;4919;48.792;9.202;2023-04-25T09:09:14;9.90;1.00
9760;DHT22;4919;48.792;9.202;2023-04-25T09:12:00;10.00;1.00
9760;DHT22;4919;48.792;9.202;2023-04-25T09:15:04;9.90;1.00
9760;DHT22;4919;48.792;9.202;2023-04-25T09:17:55;9.80;1.00
9760;DHT22;4919;48.792;9.202;2023-04-25T09:20:44;9.80;1.00
9760;DHT22;4919;48.792;9.202;2023-04-25T09:23:28;10.10;1.00
9760;DHT22;4919;48.792;9.202;2023-04-25T09:26:18;10.80;1.00
9760;DHT22;4919;48.792;9.202;2023-04-25T09:29:07;11.00;1.00
9760;DHT22;4919;48.792;9.202;2023-04-25T09:31:52;11.30;1.00
9760;DHT22;4919;48.792;9.202;2023-04-25T09:34:41;11.50;1.00
9760;DHT22;4919;48.792;9.202;2023-04-25T09:37:28;12.00;1.00
9760;DHT22;4919;48.792;9.202;2023-04-25T09:40:13;12.10;1.00
9760;DHT22;4919;48.792;9.202;2023-04-25T09:42:58;12.30;1.00
9760;DHT22;4919;48.792;9.202;2023-04-25T09:45:43;11.70;1.00
9760;DHT22;4919;48.792;9.202;2023-04-25T09:48:28;11.20;1.00
9760;DHT22;4919;48.792;9.202;2023-04-25T09:51:14;10.90;1.00
9760;DHT22;4919;48.792;9.202;2023-04-25T09:53:58;10.80;1.00
9760;DHT22;4919;48.792;9.202;2023-04-25T09:56:44;10.90;1.00
9760;DHT22;4919;48.792;9.202;2023-04-25T09:59:31;11.00;1.00
9760;DHT22;4919;48.792;9.202;2023-04-25T10:02:18;10.60;1.00
9760;DHT22;4919;48.792;9.202;2023-04-25T10:05:07;10.80;1.00
9760;DHT22;4919;48.792;9.202;2023-04-25T10:07:52;10.80;1.00
9760;DHT22;4919;48.792;9.202;2023-04-25T10:10:38;10.50;1.00
9760;DHT22;4919;48.792;9.202;2023-04-25T10:13:24;10.70;1.00
9760;DHT22;4919;48.792;9.202;2023-04-25T10:16:09;10.60;1.00
9760;DHT22;4919;48.792;9.202;2023-04-25T10:18:55;10.50;1.00
9760;DHT22;4919;48.792;9.202;2023-04-25T10:21:46;10.50;1.00
9760;DHT22;4919;48.792;9.202;2023-04-25T10:24:36;10.30;1.00
9760;DHT22;4919;48.792;9.202;2023-04-25T10:27:22;10.20;1.00
9760;DHT22;4919;48.792;9.202;2023-04-25T10:30:13;10.30;1.00
9760;DHT22;4919;48.792;9.202;2023-04-25T10:32:59;10.30;1.00
9760;DHT22;4919;48.792;9.202;2023-04-25T10:35:45;10.30;1.00
9760;DHT22;4919;48.792;9.202;2023-04-25T10:38:30;10.30;1.00
9760;DHT22;4919;48.792;9.202;2023-04-25T10:41:15;10.40;1.00
9760;DHT22;4919;48.792;9.202;2023-04-25T10:44:04;10.30;1.00
9760;DHT22;4919;48.792;9.202;2023-04-25T10:46:48;10.40;1.00
9760;DHT22;4919;48.792;9.202;2023-04-25T10:55:06;10.90;1.00
9760;DHT22;4919;48.792;9.202;2023-04-25T10:57:51;11.10;1.00
9760;DHT22;4919;48.792;9.202;2023-04-25T11:00:36;11.00;1.00
9760;DHT22;4919;48.792;9.202;2023-04-25T11:03:21;10.80;1.00
9760;DHT22;4919;48.792;9.202;2023-04-25T11:06:23;10.70;1.00
9760;DHT22;4919;48.792;9.202;2023-04-25T11:09:11;10.70;1.00
9760;DHT22;4919;48.792;9.202;2023-04-25T11:11:58;10.70;1.00
9760;DHT22;4919;48.792;9.202;2023-04-25T11:14:43;10.50;1.00
9760;DHT22;4919;48.792;9.202;2023-04-25T11:17:28;10.50;1.00
9760;DHT22;4919;48.792;9.202;2023-04-25T11:20:13;10.40;1.00
9760;DHT22;4919;48.792;9.202;2023-04-25T11:22:58;10.60;1.00
9760;DHT22;4919;48.792;9.202;2023-04-25T11:25:44;10.70;1.00
9760;DHT22;4919;48.792;9.202;2023-04-25T11:28:28;10.50;1.00
9760;DHT22;4919;48.792;9.202;2023-04-25T11:31:13;10.40;1.00
9760;DHT22;4919;48.792;9.202;2023-04-25T11:33:58;10.40;1.00
9760;DHT22;4919;48.792;9.202;2023-04-25T11:36:45;10.40;1.00
9760;DHT22;4919;48.792;9.202;2023-04-25T11:39:30;10.30;1.00
9760;DHT22;4919;48.792;9.202;2023-04-25T11:42:14;10.30;1.00
9760;DHT22;4919;48.792;9.202;2023-04-25T11:44:59;10.20;1.00
9760;DHT22;4919;48.792;9.202;2023-04-25T11:47:44;10.20;1.00
9760;DHT22;4919;48.792;9.202;2023-04-25T11:50:29;10.10;1.00
9760;DHT22;4919;48.792;9.202;2023-04-25T11:53:14;9.90;1.00
9760;DHT22;4919;48.792;9.202;2023-04-25T11:55:59;9.80;1.00
9760;DHT22;4919;48.792;9.202;2023-04-25T11:59:04;9.90;1.00
9760;DHT22;4919;48.792;9.202;2023-04-25T12:01:50;10.00;1.00
9760;DHT22;4919;48.792;9.202;2023-04-25T12:04:35;10.00;1.00
9760;DHT22;4919;48.792;9.202;2023-04-25T12:07:19;10.10;1.00
9760;DHT22;4919;48.792;9.202;2023-04-25T12:10:06;10.30;1.00
9760;DHT22;4919;48.792;9.202;2023-04-25T12:12:50;10.50;1.00
9760;DHT22;4919;48.792;9.202;2023-04-25T12:15:35;10.50;1.00
9760;DHT22;4919;48.792;9.202;2023-04-25T12:18:23;10.40;1.00
9760;DHT22;4919;48.792;9.202;2023-04-25T12:21:09;10.20;1.00
9760;DHT22;4919;48.792;9.202;2023-04-25T12:23:54;10.10;1.00
9760;DHT22;4919;48.792;9.202;2023-04-25T12:26:49;10.40;1.00
9760;DHT22;4919;48.792;9.202;2023-04-25T12:29:34;10.60;1.00
9760;DHT22;4919;48.792;9.202;2023-04-25T12:32:19;10.60;1.00
9760;DHT22;4919;48.792;9.202;2023-04-25T12:35:05;10.60;1.00
9760;DHT22;4919;48.792;9.202;2023-04-25T12:37:50;10.40;1.00
9760;DHT22;4919;48.792;9.202;2023-04-25T12:40:35;10.50;1.00
9760;DHT22;4919;48.792;9.202;2023-04-25T12:43:21;10.70;1.00
9760;DHT22;4919;48.792;9.202;2023-04-25T12:46:05;10.60;1.00
9760;DHT22;4919;48.792;9.202;2023-04-25T12:48:50;10.50;1.00
9760;DHT22;4919;48.792;9.202;2023-04-25T12:51:36;10.60;1.00
9760;DHT22;4919;48.792;9.202;2023-04-25T12:54:20;10.90;1.00
9760;DHT22;4919;48.792;9.202;2023-04-25T12:57:05;11.20;1.00
9760;DHT22;4919;48.792;9.202;2023-04-25T12:59:50;11.40;1.00
9760;DHT22;4919;48.792;9.202;2023-04-25T13:02:35;11.00;1.00
9760;DHT22;4919;48.792;9.202;2023-04-25T13:05:20;10.80;1.00
9760;DHT22;4919;48.792;9.202;2023-04-25T13:08:05;10.60;1.00
9760;DHT22;4919;48.792;9.202;2023-04-25T13:10:50;10.50;1.00
9760;DHT22;4919;48.792;9.202;2023-04-25T13:13:35;10.20;1.00
9760;DHT22;4919;48.792;9.202;2023-04-25T13:16:20;10.20;1.00
9760;DHT22;4919;48.792;9.202;2023-04-25T13:19:05;10.40;1.00
9760;DHT22;4919;48.792;9.202;2023-04-25T13:21:50;10.60;1.00
9760;DHT22;4919;48.792;9.202;2023-04-25T13:24:35;10.80;1.00
9760;DHT22;4919;48.792;9.202;2023-04-25T13:27:19;10.80;1.00
9760;DHT22;4919;48.792;9.202;2023-04-25T13:30:05;10.90;1.00
9760;DHT22;4919;48.792;9.202;2023-04-25T13:32:50;10.90;1.00
9760;DHT22;4919;48.792;9.202;2023-04-25T13:35:36;11.40;1.00
9760;DHT22;4919;48.792;9.202;2023-04-25T13:38:22;11.40;1.00
9760;DHT22;4919;48.792;9.202;2023-04-25T13:41:07;11.50;1.00
9760;DHT22;4919;48.792;9.202;2023-04-25T13:43:51;11.40;1.00
9760;DHT22;4919;48.792;9.202;2023-04-25T13:46:37;11.30;1.00
9760;DHT22;4919;48.792;9.202;2023-04-25T13:49:21;11.00;1.00
9760;DHT22;4919;48.792;9.202;2023-04-25T13:52:06;10.80;1.00
9760;DHT22;4919;48.792;9.202;2023-04-25T13:54:51;10.90;1.00
9760;DHT22;4919;48.792;9.202;2023-04-25T13:57:36;11.20;1.00
9760;DHT22;4919;48.792;9.202;2023-04-25T14:00:21;11.20;1.00
9760;DHT22;4919;48.792;9.202;2023-04-25T14:03:06;11.10;1.00
9760;DHT22;4919;48.792;9.202;2023-04-25T14:05:51;10.90;1.00
9760;DHT22;4919;48.792;9.202;2023-04-25T14:08:36;10.60;1.00
9760;DHT22;4919;48.792;9.202;2023-04-25T14:11:21;10.50;1.00
9760;DHT22;4919;48.792;9.202;2023-04-25T14:14:05;10.40;1.00
9760;DHT22;4919;48.792;9.202;2023-04-25T14:16:51;10.40;1.00
9760;DHT22;4919;48.792;9.202;2023-04-25T14:19:36;10.30;1.00
9760;DHT22;4919;48.792;9.202;2023-04-25T14:22:21;10.20;1.00
9760;DHT22;4919;48.792;9.202;2023-04-25T14:25:06;10.00;1.00
9760;DHT22;4919;48.792;9.202;2023-04-25T14:27:51;9.80;1.00
9760;DHT22;4919;48.792;9.202;2023-04-25T14:30:35;9.70;1.00
9760;DHT22;4919;48.792;9.202;2023-04-25T14:33:20;9.60;1.00
9760;DHT22;4919;48.792;9.202;2023-04-25T14:36:05;9.60;1.00
9760;DHT22;4919;48.792;9.202;2023-04-25T14:38:50;9.60;1.00
9760;DHT22;4919;48.792;9.202;2023-04-25T14:41:35;9.60;1.00
9760;DHT22;4919;48.792;9.202;2023-04-25T14:44:20;9.50;1.00
9760;DHT22;4919;48.792;9.202;2023-04-25T14:47:05;9.50;1.00
9760;DHT22;4919;48.792;9.202;2023-04-25T14:49:49;9.40;1.00
9760;DHT22;4919;48.792;9.202;2023-04-25T14:52:34;9.50;1.00
9760;DHT22;4919;48.792;9.202;2023-04-25T14:55:19;9.60;1.00
9760;DHT22;4919;48.792;9.202;2023-04-25T14:58:04;9.70;1.00
9760;DHT22;4919;48.792;9.202;2023-04-25T15:00:49;9.80;1.00
9760;DHT22;4919;48.792;9.202;2023-04-25T15:03:34;10.00;1.00
9760;DHT22;4919;48.792;9.202;2023-04-25T15:06:18;10.30;1.00
9760;DHT22;4919;48.792;9.202;2023-04-25T15:09:04;10.10;1.00
9760;DHT22;4919;48.792;9.202;2023-04-25T15:11:49;9.90;1.00
9760;DHT22;4919;48.792;9.202;2023-04-25T15:14:34;9.80;1.00
9760;DHT22;4919;48.792;9.202;2023-04-25T15:17:19;9.70;1.00
9760;DHT22;4919;48.792;9.202;2023-04-25T15:20:06;9.80;1.00
9760;DHT22;4919;48.792;9.202;2023-04-25T15:22:51;9.80;1.00
9760;DHT22;4919;48.792;9.202;2023-04-25T15:25:36;9.70;1.00
9760;DHT22;4919;48.792;9.202;2023-04-25T15:28:21;9.70;1.00
9760;DHT22;4919;48.792;9.202;2023-04-25T15:31:06;9.70;1.00
9760;DHT22;4919;48.792;9.202;2023-04-25T15:33:51;9.70;1.00
9760;DHT22;4919;48.792;9.202;2023-04-25T15:36:35;9.80;1.00
9760;DHT22;4919;48.792;9.202;2023-04-25T15:39:20;9.80;1.00
9760;DHT22;4919;48.792;9.202;2023-04-25T15:42:05;9.90;1.00
9760;DHT22;4919;48.792;9.202;2023-04-25T15:44:50;9.90;1.00
9760;DHT22;4919;48.792;9.202;2023-04-25T15:47:36;9.90;1.00
9760;DHT22;4919;48.792;9.202;2023-04-25T15:50:22;10.00;1.00
9760;DHT22;4919;48.792;9.202;2023-04-25T15:53:07;9.90;1.00
9760;DHT22;4919;48.792;9.202;2023-04-25T15:55:52;9.90;1.00
9760;DHT22;4919;48.792;9.202;2023-04-25T15:58:37;9.90;1.00
9760;DHT22;4919;48.792;9.202;2023-04-25T16:01:22;9.90;1.00
9760;DHT22;4919;48.792;9.202;2023-04-25T16:04:07;9.90;1.00
9760;DHT22;4919;48.792;9.202;2023-04-25T16:06:52;9.80;1.00
9760;DHT22;4919;48.792;9.202;2023-04-25T16:09:37;9.90;1.00
9760;DHT22;4919;48.792;9.202;2023-04-25T16:12:22;9.80;1.00
9760;DHT22;4919;48.792;9.202;2023-04-25T16:15:07;9.80;1.00
9760;DHT22;4919;48.792;9.202;2023-04-25T16:17:52;9.70;1.00
9760;DHT22;4919;48.792;9.202;2023-04-25T16:20:37;9.60;1.00
9760;DHT22;4919;48.792;9.202;2023-04-25T16:23:22;9.60;1.00
9760;DHT22;4919;48.792;9.202;2023-04-25T16:26:07;9.50;1.00
9760;DHT22;4919;48.792;9.202;2023-04-25T16:28:52;9.50;1.00
9760;DHT22;4919;48.792;9.202;2023-04-25T16:31:37;9.50;1.00
9760;DHT22;4919;48.792;9.202;2023-04-25T16:34:21;9.40;1.00
9760;DHT22;4919;48.792;9.202;2023-04-25T16:37:06;9.40;1.00
9760;DHT22;4919;48.792;9.202;2023-04-25T16:39:51;9.40;1.00
9760;DHT22;4919;48.792;9.202;2023-04-25T16:42:36;9.40;1.00
9760;DHT22;4919;48.792;9.202;2023-04-25T16:45:21;9.30;1.00
9760;DHT22;4919;48.792;9.202;2023-04-25T16:48:06;9.30;1.00
9760;DHT22;4919;48.792;9.202;2023-04-25T16:50:51;9.20;1.00
9760;DHT22;4919;48.792;9.202;2023-04-25T16:53:36;9.10;1.00
9760;DHT22;4919;48.792;9.202;2023-04-25T16:56:21;9.10;1.00
9760;DHT22;4919;48.792;9.202;2023-04-25T16:59:06;9.00;1.00
9760;DHT22;4919;48.792;9.202;2023-04-25T17:01:51;8.90;1.00
9760;DHT22;4919;48.792;9.202;2023-04-25T17:04:36;8.90;1.00
9760;DHT22;4919;48.792;9.202;2023-04-25T17:07:21;8.90;1.00
9760;DHT22;4919;48.792;9.202;2023-04-25T17:10:06;8.90;1.00
9760;DHT22;4919;48.792;9.202;2023-04-25T17:12:51;8.90;1.00
9760;DHT22;4919;48.792;9.202;2023-04-25T17:15:36;9.10;1.00
9760;DHT22;4919;48.792;9.202;2023-04-25T17:18:21;9.20;1.00
9760;DHT22;4919;48.792;9.202;2023-04-25T17:21:06;9.20;1.00
9760;DHT22;4919;48.792;9.202;2023-04-25T17:23:51;9.20;1.00
9760;DHT22;4919;48.792;9.202;2023-04-25T17:26:36;9.10;1.00
9760;DHT22;4919;48.792;9.202;2023-04-25T17:29:21;9.10;1.00
9760;DHT22;4919;48.792;9.202;2023-04-25T17:32:06;9.10;1.00
9760;DHT22;4919;48.792;9.202;2023-04-25T17:34:51;9.00;1.00
9760;DHT22;4919;48.792;9.202;2023-04-25T17:37:36;8.90;1.00
9760;DHT22;4919;48.792;9.202;2023-04-25T17:40:20;8.80;1.00
9760;DHT22;4919;48.792;9.202;2023-04-25T17:43:05;8.70;1.00
9760;DHT22;4919;48.792;9.202;2023-04-25T17:45:50;8.80;1.00
9760;DHT22;4919;48.792;9.202;2023-04-25T17:48:35;8.70;1.00
9760;DHT22;4919;48.792;9.202;2023-04-25T17:51:20;8.60;1.00
9760;DHT22;4919;48.792;9.202;2023-04-25T17:54:05;8.50;1.00
9760;DHT22;4919;48.792;9.202;2023-04-25T17:56:50;8.40;1.00
9760;DHT22;4919;48.792;9.202;2023-04-25T17:59:34;8.30;1.00
9760;DHT22;4919;48.792;9.202;2023-04-25T18:02:19;8.20;1.00
9760;DHT22;4919;48.792;9.202;2023-04-25T18:05:04;8.20;1.00
9760;DHT22;4919;48.792;9.202;2023-04-25T18:07:49;8.10;1.00
9760;DHT22;4919;48.792;9.202;2023-04-25T18:10:34;8.10;1.00
9760;DHT22;4919;48.792;9.202;2023-04-25T18:13:19;8.00;1.00
9760;DHT22;4919;48.792;9.202;2023-04-25T18:16:04;8.10;1.00
9760;DHT22;4919;48.792;9.202;2023-04-25T18:18:48;8.00;1.00
9760;DHT22;4919;48.792;9.202;2023-04-25T18:21:33;8.00;1.00
9760;DHT22;4919;48.792;9.202;2023-04-25T18:24:19;8.00;1.00
9760;DHT22;4919;48.792;9.202;2023-04-25T18:27:04;8.10;1.00
9760;DHT22;4919;48.792;9.202;2023-04-25T18:29:48;8.10;1.00
9760;DHT22;4919;48.792;9.202;2023-04-25T18:32:33;8.10;1.00
9760;DHT22;4919;48.792;9.202;2023-04-25T18:35:18;8.20;1.00